createdAt,value
2019-05-03T00:01:21.822Z,67.20
2019-05-03T00:03:51.884Z,66.94
2019-05-03T00:06:23.354Z,67.83
2019-05-03T00:08:55.929Z,66.73
2019-05-03T00:11:25.022Z,66.84
2019-05-03T00:13:56.398Z,67.55
2019-05-03T00:16:32.541Z,67.69
2019-05-03T00:19:03.244Z,68.42
2019-05-03T00:21:32.737Z,68.42
2019-05-03T00:24:02.981Z,68.42
2019-05-03T00:26:31.968Z,67.67
2019-05-03T00:29:02.216Z,67.90
2019-05-03T00:31:31.892Z,71.65
2019-05-03T00:34:06.548Z,72.40
2019-05-03T00:36:55.292Z,69.17
2019-05-03T00:39:39.022Z,69.17
2019-05-03T00:42:08.138Z,67.62
2019-05-03T00:44:37.006Z,66.97
2019-05-03T00:47:05.954Z,67.22
2019-05-03T00:49:34.944Z,66.01
2019-05-03T00:52:04.032Z,67.48
2019-05-03T00:54:32.895Z,66.92
2019-05-03T00:57:02.735Z,65.52
2019-05-03T00:59:32.673Z,64.76
2019-05-03T01:02:02.681Z,65.81
2019-05-03T01:04:33.665Z,66.17
2019-05-03T01:07:02.574Z,66.47
2019-05-03T01:09:31.807Z,67.05
2019-05-03T01:12:01.930Z,67.05
2019-05-03T01:14:31.787Z,66.17
2019-05-03T01:17:02.605Z,65.22
2019-05-03T01:19:32.537Z,65.89
2019-05-03T01:22:01.953Z,63.90
2019-05-03T01:24:32.250Z,65.91
2019-05-03T01:27:02.591Z,64.83
2019-05-03T01:29:32.284Z,65.21
2019-05-03T01:32:02.515Z,65.21
2019-05-03T01:34:37.038Z,65.53
2019-05-03T01:37:06.019Z,65.42
2019-05-03T01:39:34.954Z,66.61
2019-05-03T01:42:03.997Z,66.82
2019-05-03T01:44:32.985Z,65.83
2019-05-03T01:47:04.672Z,65.36
2019-05-03T01:49:42.568Z,65.21
2019-05-03T01:52:33.581Z,64.74
2019-05-03T01:55:03.295Z,64.78
2019-05-03T01:57:32.530Z,64.78
2019-05-03T02:00:02.827Z,64.96
2019-05-03T02:03:01.556Z,64.48
2019-05-03T02:05:45.139Z,65.93
2019-05-03T02:08:14.096Z,65.93
2019-05-03T02:10:44.078Z,64.73
2019-05-03T02:13:13.046Z,64.84
2019-05-03T02:15:42.301Z,64.68
2019-05-03T02:18:14.887Z,65.11
2019-05-03T02:20:42.401Z,65.57
2019-05-03T02:23:11.894Z,65.04
2019-05-03T02:25:41.920Z,64.28
2019-05-03T02:28:12.649Z,64.81
2019-05-03T02:30:44.001Z,65.73
2019-05-03T02:33:13.453Z,66.50
2019-05-03T02:35:43.014Z,66.50
2019-05-03T02:38:13.494Z,65.24
2019-05-03T02:40:43.097Z,64.93
2019-05-03T02:43:21.331Z,66.33
2019-05-03T02:46:10.554Z,65.51
2019-05-03T02:49:07.818Z,66.23
2019-05-03T02:51:36.960Z,64.18
2019-05-03T02:54:06.086Z,65.12
2019-05-03T02:56:35.739Z,65.78
2019-05-03T02:59:06.141Z,66.46
2019-05-03T03:01:35.998Z,67.10
2019-05-03T03:04:05.849Z,66.50
2019-05-03T03:06:36.946Z,65.30
2019-05-03T03:09:07.047Z,65.06
2019-05-03T03:11:39.025Z,65.06
2019-05-03T03:14:12.416Z,64.92
2019-05-03T03:16:48.126Z,66.25
2019-05-03T03:19:19.954Z,64.98
2019-05-03T03:21:51.906Z,64.92
2019-05-03T03:24:25.988Z,64.21
2019-05-03T03:26:58.359Z,64.62
2019-05-03T03:29:28.576Z,65.31
2019-05-03T03:32:30.360Z,67.01
2019-05-03T03:35:20.846Z,67.01
2019-05-03T03:37:50.142Z,66.89
2019-05-03T03:40:20.527Z,65.67
2019-05-03T03:42:52.574Z,66.24
2019-05-03T03:45:22.172Z,64.79
2019-05-03T03:47:59.108Z,64.79
2019-05-03T03:50:35.899Z,66.41
2019-05-03T03:53:10.586Z,67.85
2019-05-03T03:55:39.912Z,67.29
2019-05-03T03:58:09.400Z,67.29
2019-05-03T04:00:38.917Z,68.51
2019-05-03T04:03:08.723Z,67.57
2019-05-03T04:05:37.932Z,67.94
2019-05-03T04:08:07.305Z,67.00
2019-05-03T04:10:36.586Z,67.10
2019-05-03T04:13:08.548Z,65.55
2019-05-03T04:15:56.459Z,67.65
2019-05-03T04:18:40.488Z,67.65
2019-05-03T04:21:09.350Z,69.08
2019-05-03T04:23:39.774Z,69.08
2019-05-03T04:26:10.105Z,70.00
2019-05-03T04:28:39.924Z,69.47
2019-05-03T04:31:09.053Z,68.37
2019-05-03T04:33:37.976Z,70.04
2019-05-03T04:36:07.077Z,70.49
2019-05-03T04:38:37.427Z,69.96
2019-05-03T04:41:06.955Z,68.57
2019-05-03T04:43:35.958Z,69.78
2019-05-03T04:46:09.684Z,68.58
2019-05-03T04:48:38.731Z,68.47
2019-05-03T04:51:06.843Z,68.05
2019-05-03T04:53:37.667Z,69.89
2019-05-03T04:56:06.568Z,67.94
2019-05-03T04:58:36.474Z,67.77
2019-05-03T05:01:06.582Z,67.14
2019-05-03T05:03:36.127Z,66.84
2019-05-03T05:06:06.317Z,64.32
2019-05-03T05:08:35.997Z,66.01
2019-05-03T05:11:06.747Z,66.01
2019-05-03T05:13:36.545Z,65.89
2019-05-03T05:16:06.283Z,65.01
2019-05-03T05:18:45.531Z,64.87
2019-05-03T05:21:17.719Z,64.24
2019-05-03T05:24:05.274Z,64.08
2019-05-03T05:26:59.849Z,64.16
2019-05-03T05:29:30.453Z,64.31
2019-05-03T05:31:59.387Z,63.68
2019-05-03T05:34:28.465Z,63.54
2019-05-03T05:36:57.398Z,63.51
2019-05-03T05:39:26.387Z,65.15
2019-05-03T05:41:55.561Z,64.40
2019-05-03T05:44:25.053Z,63.18
2019-05-03T05:47:34.413Z,63.18
2019-05-03T05:50:34.621Z,63.55
2019-05-03T05:53:04.835Z,62.54
2019-05-03T05:55:54.963Z,62.54
2019-05-03T05:58:37.755Z,63.76
2019-05-03T06:01:14.582Z,63.62
2019-05-03T06:03:44.776Z,62.52
2019-05-03T06:06:19.863Z,61.69
2019-05-03T06:08:55.939Z,60.92
2019-05-03T06:11:46.008Z,64.96
2019-05-03T06:14:38.630Z,64.72
2019-05-03T06:17:14.670Z,63.46
2019-05-03T06:19:51.632Z,63.46
2019-05-03T06:22:28.752Z,65.00
2019-05-03T06:25:06.386Z,65.00
2019-05-03T06:27:38.290Z,65.82
2019-05-03T06:30:27.483Z,67.45
2019-05-03T06:32:56.503Z,68.37
2019-05-03T06:35:25.700Z,70.52
2019-05-03T06:37:54.625Z,67.43
2019-05-03T06:40:25.279Z,67.29
2019-05-03T06:43:08.219Z,68.05
2019-05-03T06:45:26.850Z,67.88
2019-05-03T06:47:56.291Z,69.92
2019-05-03T06:50:28.977Z,69.89
2019-05-03T06:52:59.840Z,71.37
2019-05-03T06:55:27.983Z,70.30
2019-05-03T06:58:30.372Z,70.73
2019-05-03T07:01:26.787Z,68.55
2019-05-03T07:04:01.573Z,67.81
2019-05-03T07:06:50.623Z,63.64
2019-05-03T07:09:44.709Z,62.70
2019-05-03T07:12:14.837Z,63.62
2019-05-03T07:14:45.032Z,63.62
2019-05-03T07:17:14.487Z,62.84
2019-05-03T07:19:45.781Z,64.40
2019-05-03T07:22:15.362Z,60.88
2019-05-03T07:24:45.546Z,60.28
2019-05-03T07:27:15.806Z,56.68
2019-05-03T07:29:45.466Z,58.53
2019-05-03T07:32:17.634Z,57.77
2019-05-03T07:34:46.580Z,56.62
2019-05-03T07:37:15.601Z,56.96
2019-05-03T07:39:45.311Z,56.99
2019-05-03T07:42:15.678Z,56.99
2019-05-03T07:44:44.956Z,56.93
2019-05-03T07:49:30.065Z,56.84
2019-05-03T07:51:59.431Z,55.68
2019-05-03T07:54:30.582Z,57.04
2019-05-03T07:57:05.159Z,56.86
2019-05-03T07:59:35.554Z,56.86
2019-05-03T08:02:05.789Z,58.23
2019-05-03T08:04:35.904Z,55.22
2019-05-03T08:07:05.716Z,57.23
2019-05-03T08:09:35.140Z,55.78
2019-05-03T08:12:05.196Z,55.16
2019-05-03T08:14:35.661Z,56.21
2019-05-03T08:17:05.252Z,55.06
2019-05-03T08:19:35.718Z,52.62
2019-05-03T08:22:05.445Z,52.72
2019-05-03T08:24:34.743Z,51.49
2019-05-03T08:27:04.992Z,49.98
2019-05-03T08:29:35.199Z,50.32
2019-05-03T08:32:24.569Z,48.45
2019-05-03T08:35:12.646Z,48.45
2019-05-03T08:37:49.995Z,48.46
2019-05-03T08:40:19.930Z,48.46
2019-05-03T08:42:48.978Z,45.86
2019-05-03T08:45:18.014Z,45.29
2019-05-03T08:47:47.453Z,44.01
2019-05-03T08:50:21.375Z,43.48
2019-05-03T08:52:47.578Z,42.49
2019-05-03T08:55:16.537Z,41.04
2019-05-03T08:57:45.584Z,42.01
2019-05-03T09:00:16.991Z,39.76
2019-05-03T09:02:46.479Z,39.76
2019-05-03T09:05:18.526Z,37.87
2019-05-03T09:07:50.698Z,35.65
2019-05-03T09:10:31.753Z,32.92
2019-05-03T09:13:06.558Z,32.92
2019-05-03T09:15:36.323Z,32.41
2019-05-03T09:18:35.960Z,32.28
2019-05-03T09:21:05.705Z,32.69
2019-05-03T09:24:34.998Z,33.27
2019-05-03T09:27:05.485Z,30.01
2019-05-03T09:30:38.643Z,28.91
2019-05-03T09:34:35.120Z,30.73
2019-05-03T09:37:06.315Z,30.47
2019-05-03T09:39:40.655Z,30.37
2019-05-03T09:42:09.116Z,31.25
2019-05-03T09:44:40.154Z,32.64
2019-05-03T09:53:55.475Z,30.99
2019-05-03T10:05:46.996Z,26.71
2019-05-03T10:08:05.267Z,24.83
2019-05-03T10:19:54.603Z,26.14
2019-05-03T10:22:47.730Z,26.14
2019-05-03T10:26:16.074Z,30.44
2019-05-03T10:42:08.500Z,29.96
2019-05-03T10:54:07.518Z,31.46
2019-05-03T10:57:35.956Z,31.95
2019-05-03T11:11:01.521Z,26.38
2019-05-03T11:14:15.061Z,26.38
2019-05-03T11:22:25.432Z,32.42
2019-05-03T11:26:00.050Z,32.42
2019-05-03T11:33:45.675Z,34.42
2019-05-03T11:43:18.617Z,33.49
2019-05-03T11:46:51.250Z,27.16
2019-05-03T11:51:05.567Z,24.58
2019-05-03T11:54:15.593Z,18.33
2019-05-03T11:57:31.101Z,18.33
2019-05-03T12:01:12.928Z,17.68
2019-05-03T12:04:42.873Z,17.14
2019-05-03T12:07:18.484Z,21.30
2019-05-03T12:09:47.723Z,23.23
2019-05-03T12:12:29.454Z,23.04
2019-05-03T12:14:59.541Z,23.74
2019-05-03T12:17:34.923Z,25.97
2019-05-03T12:20:07.748Z,26.79
2019-05-03T12:22:38.462Z,27.70
2019-05-03T12:25:10.495Z,28.24
2019-05-03T12:27:39.691Z,28.86
2019-05-03T12:30:08.353Z,29.47
2019-05-03T12:32:37.390Z,28.61
2019-05-03T12:35:06.914Z,29.91
2019-05-03T12:37:35.965Z,29.91
2019-05-03T12:40:05.506Z,29.27
2019-05-03T12:42:35.439Z,30.37
2019-05-03T12:45:06.726Z,29.67
2019-05-03T12:47:36.250Z,28.96
2019-05-03T12:50:06.564Z,26.72
2019-05-03T12:52:49.573Z,23.41
2019-05-03T12:55:07.433Z,23.41
2019-05-03T12:57:36.612Z,21.71
2019-05-03T13:00:26.119Z,21.58
2019-05-03T13:02:59.421Z,21.58
2019-05-03T13:05:30.145Z,23.47
2019-05-03T13:08:26.444Z,24.87
2019-05-03T13:10:55.754Z,23.24
2019-05-03T13:13:24.969Z,21.30
2019-05-03T13:15:55.064Z,19.07
2019-05-03T13:18:25.229Z,18.54
2019-05-03T13:20:55.854Z,19.73
2019-05-03T13:23:25.483Z,21.19
2019-05-03T13:25:55.581Z,22.15
2019-05-03T13:28:25.429Z,23.42
2019-05-03T13:31:25.127Z,23.43
2019-05-03T13:33:54.939Z,23.43
2019-05-03T13:36:25.271Z,21.89
2019-05-03T13:39:09.847Z,22.32
2019-05-03T13:41:26.017Z,22.32
2019-05-03T13:44:00.961Z,22.50
2019-05-03T13:46:30.717Z,22.23
2019-05-03T13:49:00.554Z,23.37
2019-05-03T13:51:30.114Z,23.96
2019-05-03T13:53:59.582Z,23.19
2019-05-03T13:56:29.669Z,23.15
2019-05-03T13:58:57.986Z,23.15
2019-05-03T14:01:27.574Z,23.30
2019-05-03T14:03:57.622Z,23.69
2019-05-03T14:06:27.071Z,23.63
2019-05-03T14:08:56.284Z,24.46
2019-05-03T14:11:25.592Z,23.79
2019-05-03T14:13:55.185Z,23.93
2019-05-03T14:16:24.445Z,23.09
2019-05-03T14:18:56.940Z,22.76
2019-05-03T14:21:34.466Z,22.92
2019-05-03T14:24:09.835Z,23.61
2019-05-03T14:26:40.943Z,24.82
2019-05-03T14:29:10.471Z,25.68
2019-05-03T14:31:39.667Z,26.49
2019-05-03T14:34:08.599Z,27.89
2019-05-03T14:36:37.565Z,28.83
2019-05-03T14:39:10.098Z,28.83
2019-05-03T14:41:39.442Z,28.69
2019-05-03T14:44:08.538Z,27.87
2019-05-03T14:46:38.526Z,26.50
2019-05-03T14:49:07.785Z,25.19
2019-05-03T14:51:37.000Z,25.19
2019-05-03T14:54:07.148Z,24.32
2019-05-03T14:56:45.659Z,24.41
2019-05-03T14:59:35.679Z,24.78
2019-05-03T15:02:15.396Z,25.46
2019-05-03T15:04:45.878Z,26.13
2019-05-03T15:07:15.768Z,26.13
2019-05-03T15:09:47.473Z,26.61
2019-05-03T15:12:19.268Z,27.26
2019-05-03T15:14:50.356Z,27.48
2019-05-03T15:17:19.433Z,27.97
2019-05-03T15:19:50.469Z,28.18
2019-05-03T15:22:22.154Z,29.04
2019-05-03T15:24:54.958Z,27.91
2019-05-03T15:27:25.715Z,27.91
2019-05-03T15:29:58.058Z,27.68
2019-05-03T15:32:30.889Z,27.22
2019-05-03T15:35:00.768Z,27.94
2019-05-03T15:37:31.825Z,27.91
2019-05-03T15:40:15.641Z,27.94
2019-05-03T15:42:54.575Z,27.87
2019-05-03T15:45:58.736Z,29.73
2019-05-03T15:48:38.412Z,31.00
2019-05-03T15:51:09.964Z,30.53
2019-05-03T15:53:41.235Z,29.86
2019-05-03T15:56:14.676Z,31.17
2019-05-03T15:58:46.945Z,31.20
2019-05-03T16:01:19.330Z,31.58
2019-05-03T16:03:55.612Z,32.87
2019-05-03T16:06:27.818Z,33.96
2019-05-03T16:09:00.663Z,33.39
2019-05-03T16:11:32.227Z,34.29
2019-05-03T16:14:06.009Z,33.41
2019-05-03T16:16:37.753Z,33.85
2019-05-03T16:19:07.748Z,33.94
2019-05-03T16:21:36.839Z,33.50
2019-05-03T16:24:11.580Z,34.47
2019-05-03T16:27:02.018Z,35.20
2019-05-03T16:29:41.884Z,34.91
2019-05-03T16:32:12.450Z,34.72
2019-05-03T16:34:40.997Z,35.44
2019-05-03T16:37:12.321Z,34.22
2019-05-03T16:39:41.967Z,33.65
2019-05-03T16:42:18.480Z,33.85
2019-05-03T16:44:50.636Z,34.49
2019-05-03T16:47:20.427Z,35.05
2019-05-03T16:49:51.534Z,35.67
2019-05-03T16:52:25.660Z,37.33
2019-05-03T16:55:03.127Z,37.33
2019-05-03T16:57:35.380Z,38.17
2019-05-03T17:00:06.989Z,40.96
2019-05-03T17:02:39.522Z,40.96
2019-05-03T17:05:24.913Z,41.72
2019-05-03T17:08:14.782Z,41.72
2019-05-03T17:10:49.575Z,43.13
2019-05-03T17:13:20.508Z,42.84
2019-05-03T17:15:52.324Z,42.84
2019-05-03T17:18:21.977Z,43.11
2019-05-03T17:21:04.531Z,43.82
2019-05-03T17:23:35.571Z,44.02
2019-05-03T17:26:05.524Z,42.42
2019-05-03T17:28:35.737Z,42.24
2019-05-03T17:31:07.312Z,42.24
2019-05-03T17:33:36.587Z,42.27
2019-05-03T17:36:13.073Z,41.48
2019-05-03T17:38:57.557Z,41.48
2019-05-03T17:41:50.493Z,39.78
2019-05-03T17:44:27.308Z,39.21
2019-05-03T17:47:04.312Z,38.98
2019-05-03T17:49:34.841Z,38.51
2019-05-03T17:52:24.907Z,38.51
2019-05-03T17:55:15.765Z,39.58
2019-05-03T17:57:57.036Z,39.55
2019-05-03T18:00:44.478Z,39.85
2019-05-03T18:03:14.601Z,41.22
2019-05-03T18:05:55.498Z,42.19
2019-05-03T18:08:55.127Z,42.22
2019-05-03T18:11:28.783Z,42.22
2019-05-03T18:13:56.888Z,43.21
2019-05-03T18:16:26.072Z,43.58
2019-05-03T18:18:54.978Z,43.56
2019-05-03T18:21:24.456Z,43.89
2019-05-03T18:23:54.535Z,43.89
2019-05-03T18:26:24.796Z,43.89
2019-05-03T18:28:55.325Z,44.01
2019-05-03T18:31:25.106Z,42.95
2019-05-03T18:33:55.418Z,43.07
2019-05-03T18:36:25.305Z,42.34
2019-05-03T18:38:55.290Z,42.27
2019-05-03T18:41:25.427Z,42.50
2019-05-03T18:44:14.645Z,42.50
2019-05-03T18:46:47.768Z,42.59
2019-05-03T18:49:16.779Z,42.19
2019-05-03T18:51:45.396Z,42.98
2019-05-03T18:54:15.629Z,42.71
2019-05-03T18:56:44.133Z,44.18
2019-05-03T18:59:14.521Z,44.79
2019-05-03T19:01:45.174Z,47.36
2019-05-03T19:04:34.271Z,47.36
2019-05-03T19:07:04.368Z,48.70
2019-05-03T19:09:40.463Z,50.03
2019-05-03T19:12:17.144Z,49.89
2019-05-03T19:14:46.138Z,50.16
2019-05-03T19:17:35.434Z,50.97
2019-05-03T19:20:09.317Z,50.41
2019-05-03T19:22:38.784Z,51.27
2019-05-03T19:25:07.948Z,51.22
2019-05-03T19:27:37.100Z,50.95
2019-05-03T19:30:07.632Z,50.20
2019-05-03T19:32:36.053Z,53.46
2019-05-03T19:35:06.980Z,52.69
2019-05-03T19:37:36.449Z,53.33
2019-05-03T19:40:06.658Z,51.95
2019-05-03T19:42:38.513Z,51.87
2019-05-03T19:45:08.414Z,51.52
2019-05-03T19:47:37.749Z,51.52
2019-05-03T19:50:06.199Z,50.41
2019-05-03T19:54:25.486Z,51.45
2019-05-03T19:56:55.704Z,52.16
2019-05-03T19:59:43.921Z,51.95
2019-05-03T20:02:41.528Z,52.08
2019-05-03T20:05:34.507Z,51.64
2019-05-03T20:08:24.521Z,51.28
2019-05-03T20:11:17.626Z,51.28
2019-05-03T20:13:47.538Z,51.50
2019-05-03T20:16:16.804Z,51.50
2019-05-03T20:18:46.536Z,51.37
2019-05-03T20:21:15.567Z,53.23
2019-05-03T20:23:47.002Z,53.23
2019-05-03T20:26:15.349Z,53.34
2019-05-03T20:28:45.122Z,53.34
2019-05-03T20:31:14.528Z,52.87
2019-05-03T20:33:45.570Z,54.07
2019-05-03T20:36:14.573Z,54.15
2019-05-03T20:38:44.581Z,53.54
2019-05-03T20:41:14.832Z,55.05
2019-05-03T20:44:15.844Z,54.81
2019-05-03T20:46:58.453Z,54.24
2019-05-03T20:49:27.368Z,55.51
2019-05-03T20:51:56.415Z,56.61
2019-05-03T20:54:27.879Z,55.64
2019-05-03T20:56:58.300Z,55.61
2019-05-03T20:59:27.573Z,55.29
2019-05-03T21:01:56.941Z,55.38
2019-05-03T21:04:26.326Z,55.38
2019-05-03T21:06:55.577Z,54.04
2019-05-03T21:09:24.114Z,54.36
2019-05-03T21:11:55.057Z,55.04
2019-05-03T21:14:24.569Z,55.79
2019-05-03T21:17:27.685Z,55.42
2019-05-03T21:20:01.400Z,53.93
2019-05-03T21:22:37.299Z,53.93
2019-05-03T21:25:12.476Z,55.70
2019-05-03T21:27:42.183Z,55.13
2019-05-03T21:30:11.298Z,56.06
2019-05-03T21:32:40.324Z,56.23
2019-05-03T21:35:10.387Z,57.75
2019-05-03T21:37:39.654Z,57.55
2019-05-03T21:40:08.901Z,58.64
2019-05-03T21:42:38.165Z,58.64
2019-05-03T21:45:10.545Z,57.85
2019-05-03T21:47:48.540Z,58.38
2019-05-03T21:50:19.315Z,59.29
2019-05-03T21:52:48.573Z,59.29
2019-05-03T21:55:20.149Z,59.02
2019-05-03T21:57:49.742Z,59.78
2019-05-03T22:00:20.018Z,59.29
2019-05-03T22:02:51.722Z,59.82
2019-05-03T22:05:21.649Z,59.36
2019-05-03T22:07:58.687Z,59.93
2019-05-03T22:10:30.736Z,59.93
2019-05-03T22:13:00.565Z,60.49
2019-05-03T22:15:40.903Z,60.97
2019-05-03T22:18:21.480Z,60.97
2019-05-03T22:21:15.940Z,59.92
2019-05-03T22:24:04.443Z,60.31
2019-05-03T22:26:55.560Z,62.83
2019-05-03T22:29:25.419Z,62.11
2019-05-03T22:31:54.990Z,62.11
2019-05-03T22:34:25.805Z,61.97
2019-05-03T22:36:55.030Z,61.92
2019-05-03T22:39:24.986Z,61.37
2019-05-03T22:41:54.011Z,61.54
2019-05-03T22:45:23.878Z,61.31
2019-05-03T22:47:54.863Z,61.64
2019-05-03T22:50:25.533Z,61.15
2019-05-03T22:52:54.971Z,59.51
2019-05-03T22:55:24.724Z,59.51
2019-05-03T22:57:54.621Z,59.81
2019-05-03T23:00:25.165Z,58.97
2019-05-03T23:02:54.806Z,60.77
2019-05-03T23:05:24.065Z,60.83
2019-05-03T23:07:55.214Z,59.65
2019-05-03T23:10:25.734Z,59.43
2019-05-03T23:12:55.115Z,59.26
2019-05-03T23:15:24.393Z,62.03
2019-05-03T23:17:54.519Z,63.27
2019-05-03T23:20:34.346Z,63.74
2019-05-03T23:23:05.404Z,64.00
2019-05-03T23:25:35.743Z,63.28
2019-05-03T23:28:04.026Z,63.28
2019-05-03T23:30:33.639Z,61.75
2019-05-03T23:33:02.588Z,59.57
2019-05-03T23:35:31.588Z,59.57
2019-05-03T23:38:00.659Z,60.23
2019-05-03T23:40:29.634Z,60.23
2019-05-03T23:42:58.482Z,59.19
2019-05-03T23:45:27.750Z,54.97
2019-05-03T23:47:56.950Z,57.27
2019-05-03T23:50:26.038Z,61.49
2019-05-03T23:52:55.360Z,60.70
2019-05-03T23:55:41.979Z,61.41
2019-05-03T23:58:11.083Z,61.62
